首页
METAR-TAF:

METAR-TAF

机场 :

哥伦比亚, 南卡罗来纳州, 美国

纬度: 33-58-15N, 经度: 080-59-40W, 海拔: 64米

当前天气观测

该预报发布于46分钟前的18:53 UTC
风速4节,风向多变
温度 16°C
湿度 48%
气压 1014 hPa
能見度: 16.1公里
天空无云

METAR: KCUB 171853Z AUTO VRB04KT 10SM CLR 16/05 A2995 RMK AO2 SLP140 T01560050

时间: 14:39 (19:39 UTC)

预报

该预报发布于2小时和0分钟前的17:39 UTC
预报有效从17日的 18点(UTC)到 18日的 18点(UTC)
风速8节,风向
能見度: 10公里
散云层高于6000英尺
从 18日的 0600点(UTC)
风速3节,风向北转西北
能見度: 10公里
散云层高于3000英尺
多云层高于6000英尺
从 18日的 1500点(UTC)
风速5节,风向多变
能見度: 10公里
多云层高于5000英尺

TAF: KCUB 171739Z 1718/1818 36008KT P6SM SCT060 FM180600 33003KT P6SM SCT030 BKN060 FM181500 VRB05KT P6SM BKN050

超过4000个机场的气象观测和天气预报(METAR&TAF报告)。

可查询的气象台以黄色和红色小点在地图上表示。

将鼠标移到小点上方,可查看气象台名称。

然后点击查看天气观测和预报。

如需切换地图:点击带黑十字的绿色按钮放大地图;点击带横线的绿色按钮缩小地图;或者点击绿色箭头查看邻近地区的地图。


METAR-TAF: